createdAt,value
2023-01-30T00:00:25.530Z,1.14
2023-01-30T00:03:31.959Z,1.18
2023-01-30T00:06:40.115Z,1.09
2023-01-30T00:09:47.810Z,1.09
2023-01-30T00:12:59.531Z,1.33
2023-01-30T00:16:06.065Z,1.33
2023-01-30T00:19:12.467Z,1.41
2023-01-30T00:22:18.661Z,1.33
2023-01-30T00:25:29.151Z,1.16
2023-01-30T00:28:39.708Z,1.26
2023-01-30T00:31:45.947Z,1.30
2023-01-30T00:34:52.130Z,1.19
2023-01-30T00:37:59.494Z,0.81
2023-01-30T00:41:06.180Z,0.76
2023-01-30T00:44:30.913Z,1.04
2023-01-30T00:47:37.119Z,1.06
2023-01-30T00:50:46.267Z,1.04
2023-01-30T00:53:52.277Z,1.03
2023-01-30T00:56:58.522Z,1.21
2023-01-30T01:00:09.128Z,0.95
2023-01-30T01:03:15.496Z,0.93
2023-01-30T01:06:21.836Z,1.09
2023-01-30T01:09:28.321Z,1.05
2023-01-30T01:12:34.645Z,0.84
2023-01-30T01:15:41.955Z,0.98
2023-01-30T01:18:48.754Z,0.84
2023-01-30T01:21:54.965Z,0.85
2023-01-30T01:25:00.978Z,0.93
2023-01-30T01:28:06.949Z,0.73
2023-01-30T01:31:16.739Z,0.89
2023-01-30T01:34:23.030Z,0.66
2023-01-30T01:37:32.028Z,0.64
2023-01-30T01:40:55.318Z,0.43
2023-01-30T01:44:08.560Z,0.38
2023-01-30T01:47:16.385Z,0.50
2023-01-30T01:50:28.265Z,0.65
2023-01-30T01:53:38.599Z,0.53
2023-01-30T01:56:48.564Z,0.71
2023-01-30T02:00:00.674Z,0.44
2023-01-30T02:03:11.808Z,0.38
2023-01-30T02:06:19.652Z,0.46
2023-01-30T02:09:26.016Z,0.75
2023-01-30T02:12:34.010Z,0.82
2023-01-30T02:15:40.908Z,0.43
2023-01-30T02:18:49.012Z,0.72
2023-01-30T02:22:30.635Z,0.81
2023-01-30T02:26:17.822Z,0.71
2023-01-30T02:30:11.577Z,0.55
2023-01-30T02:33:26.698Z,0.66
2023-01-30T02:36:47.587Z,0.39
2023-01-30T02:40:12.318Z,0.16
2023-01-30T02:43:29.423Z,0.25
2023-01-30T02:46:45.337Z,0.42
2023-01-30T02:50:00.770Z,0.12
2023-01-30T02:53:08.436Z,0.17
2023-01-30T02:56:14.538Z,0.25
2023-01-30T02:59:26.329Z,0.13
2023-01-30T03:03:07.436Z,0.12
2023-01-30T03:06:43.272Z,0.04
2023-01-30T03:09:59.428Z,0.07
2023-01-30T03:13:14.700Z,0.18
2023-01-30T03:16:26.855Z,0.09
2023-01-30T03:19:33.304Z,0.22
2023-01-30T03:22:39.502Z,-0.02
2023-01-30T03:25:49.613Z,0.03
2023-01-30T03:28:56.122Z,-0.11
2023-01-30T03:32:02.006Z,0.19
2023-01-30T03:35:08.448Z,-0.25
2023-01-30T03:38:14.898Z,-0.08
2023-01-30T03:41:22.334Z,-0.06
2023-01-30T03:44:28.713Z,-0.15
2023-01-30T03:47:34.731Z,-0.33
2023-01-30T03:50:41.080Z,-0.23
2023-01-30T03:53:47.037Z,-0.28
2023-01-30T03:56:54.931Z,-0.09
2023-01-30T04:00:01.242Z,-0.12
2023-01-30T04:03:07.813Z,-0.55
2023-01-30T04:06:13.800Z,-0.41
2023-01-30T04:09:20.230Z,-0.45
2023-01-30T04:12:27.829Z,-0.42
2023-01-30T04:15:35.773Z,-0.39
2023-01-30T04:18:42.133Z,-0.61
2023-01-30T04:21:48.011Z,-0.50
2023-01-30T04:24:53.871Z,-0.63
2023-01-30T04:28:01.458Z,-0.41
2023-01-30T04:31:09.444Z,-0.53
2023-01-30T04:34:15.527Z,-0.39
2023-01-30T04:37:21.780Z,-0.58
2023-01-30T04:40:27.903Z,-0.61
2023-01-30T04:43:35.502Z,-0.54
2023-01-30T04:46:41.914Z,-0.69
2023-01-30T04:49:48.275Z,-0.59
2023-01-30T04:52:54.381Z,-0.52
2023-01-30T04:56:00.821Z,-0.68
2023-01-30T04:59:08.371Z,-0.86
2023-01-30T05:02:14.827Z,-0.71
2023-01-30T05:05:21.005Z,-0.37
2023-01-30T05:08:26.871Z,-0.78
2023-01-30T05:11:33.488Z,-0.46
2023-01-30T05:14:41.459Z,-0.65
2023-01-30T05:17:47.839Z,-0.44
2023-01-30T05:20:53.821Z,-0.60
2023-01-30T05:23:59.801Z,-0.48
2023-01-30T05:27:05.849Z,-0.74
2023-01-30T05:30:13.889Z,-0.65
2023-01-30T05:33:19.956Z,-0.76
2023-01-30T05:36:28.500Z,-0.49
2023-01-30T05:39:34.747Z,-0.83
2023-01-30T05:42:42.641Z,-0.68
2023-01-30T05:45:55.672Z,-0.78
2023-01-30T05:49:01.942Z,-0.63
2023-01-30T05:52:07.866Z,-0.94
2023-01-30T05:55:13.884Z,-0.77
2023-01-30T05:58:19.815Z,-0.69
2023-01-30T06:01:28.651Z,-0.81
2023-01-30T06:04:35.597Z,-0.87
2023-01-30T06:07:41.937Z,-0.72
2023-01-30T06:10:48.179Z,-0.37
2023-01-30T06:13:55.002Z,-0.52
2023-01-30T06:17:02.940Z,-0.42
2023-01-30T06:20:11.102Z,-0.56
2023-01-30T06:23:17.774Z,0.02
2023-01-30T06:26:23.622Z,0.06
2023-01-30T06:29:29.352Z,-0.22
2023-01-30T06:32:37.067Z,0.08
2023-01-30T06:35:44.725Z,-0.19
2023-01-30T06:38:50.921Z,-0.14
2023-01-30T06:41:56.860Z,-0.04
2023-01-30T06:45:03.026Z,0.05
2023-01-30T06:48:10.865Z,-0.10
2023-01-30T06:51:17.240Z,-0.07
2023-01-30T06:54:23.634Z,0.03
2023-01-30T06:57:29.556Z,-0.14
2023-01-30T07:00:35.858Z,0.49
2023-01-30T07:03:43.418Z,-0.09
2023-01-30T07:06:50.192Z,-0.14
2023-01-30T07:10:07.342Z,-0.21
2023-01-30T07:13:15.094Z,0.10
2023-01-30T07:16:24.082Z,0.25
2023-01-30T07:19:32.027Z,0.46
2023-01-30T07:22:38.709Z,0.57
2023-01-30T07:25:45.109Z,0.91
2023-01-30T07:28:51.409Z,1.16
2023-01-30T07:31:58.069Z,1.62
2023-01-30T07:35:06.417Z,0.92
2023-01-30T07:38:12.961Z,1.41
2023-01-30T07:41:19.317Z,1.31
2023-01-30T07:44:25.691Z,1.57
2023-01-30T07:47:32.177Z,1.86
2023-01-30T07:50:40.141Z,1.04
2023-01-30T07:53:46.705Z,1.69
2023-01-30T07:56:53.384Z,1.78
2023-01-30T07:59:59.588Z,1.38
2023-01-30T08:03:05.665Z,1.72
2023-01-30T08:06:14.067Z,1.48
2023-01-30T08:09:20.315Z,2.09
2023-01-30T08:12:26.457Z,1.83
2023-01-30T08:15:33.643Z,2.25
2023-01-30T08:18:39.908Z,1.99
2023-01-30T08:21:47.754Z,1.96
2023-01-30T08:24:53.895Z,2.17
2023-01-30T08:28:00.779Z,2.25
2023-01-30T08:31:11.106Z,2.12
2023-01-30T08:34:17.416Z,2.36
2023-01-30T08:37:25.412Z,2.80
2023-01-30T08:40:31.487Z,2.86
2023-01-30T08:43:38.099Z,3.35
2023-01-30T08:46:44.501Z,3.09
2023-01-30T08:49:51.548Z,2.46
2023-01-30T08:52:59.359Z,3.50
2023-01-30T08:56:06.334Z,3.46
2023-01-30T08:59:12.715Z,2.71
2023-01-30T09:02:19.082Z,4.09
2023-01-30T09:05:25.953Z,3.02
2023-01-30T09:08:33.351Z,3.70
2023-01-30T09:11:39.649Z,3.89
2023-01-30T09:14:45.788Z,2.85
2023-01-30T09:17:53.364Z,2.30
2023-01-30T09:21:04.786Z,2.37
2023-01-30T09:24:12.163Z,2.05
2023-01-30T09:27:18.751Z,1.89
2023-01-30T09:30:24.998Z,1.67
2023-01-30T09:33:31.447Z,1.27
2023-01-30T09:36:37.625Z,1.40
2023-01-30T09:39:45.285Z,1.28
2023-01-30T09:43:16.241Z,1.73
2023-01-30T09:46:36.239Z,1.89
2023-01-30T09:49:54.499Z,3.01
2023-01-30T09:53:07.422Z,2.87
2023-01-30T09:56:15.323Z,2.77
2023-01-30T09:59:26.827Z,2.25
2023-01-30T10:02:42.648Z,2.95
2023-01-30T10:06:09.463Z,2.39
2023-01-30T10:09:22.624Z,2.85
2023-01-30T10:12:45.044Z,2.73
2023-01-30T10:15:58.015Z,2.78
2023-01-30T10:19:35.699Z,1.83
2023-01-30T10:22:56.647Z,1.96
2023-01-30T10:26:09.671Z,1.69
2023-01-30T10:29:22.899Z,1.52
2023-01-30T10:32:34.068Z,1.74
2023-01-30T10:35:44.184Z,1.79
2023-01-30T10:38:53.614Z,1.79
2023-01-30T10:42:10.892Z,1.69
2023-01-30T10:45:24.612Z,2.13
2023-01-30T10:48:52.895Z,1.76
2023-01-30T10:52:08.985Z,1.21
2023-01-30T10:55:35.318Z,2.29
2023-01-30T10:58:54.570Z,2.20
2023-01-30T11:02:13.431Z,3.37
2023-01-30T11:05:22.667Z,2.98
2023-01-30T11:08:30.438Z,4.16
2023-01-30T11:11:48.814Z,3.30
2023-01-30T11:14:58.710Z,2.88
2023-01-30T11:18:49.743Z,2.46
2023-01-30T11:21:43.991Z,2.52
2023-01-30T11:25:01.043Z,3.01
2023-01-30T11:28:07.647Z,3.27
2023-01-30T11:31:38.868Z,3.37
2023-01-30T11:35:04.403Z,3.67
2023-01-30T11:38:21.384Z,2.14
2023-01-30T11:41:28.123Z,3.07
2023-01-30T11:44:36.521Z,3.46
2023-01-30T11:47:57.280Z,2.91
2023-01-30T11:51:07.925Z,2.86
2023-01-30T11:54:17.522Z,2.97
2023-01-30T11:57:24.101Z,3.05
2023-01-30T12:00:39.632Z,2.80
2023-01-30T12:03:50.171Z,3.10
2023-01-30T12:07:10.039Z,2.68
2023-01-30T12:10:28.300Z,2.46
2023-01-30T12:13:39.595Z,2.59
2023-01-30T12:16:57.906Z,2.83
2023-01-30T12:20:14.276Z,3.03
2023-01-30T12:23:32.301Z,2.46
2023-01-30T12:26:45.527Z,1.84
2023-01-30T12:30:00.621Z,2.05
2023-01-30T12:33:12.212Z,1.97
2023-01-30T12:36:29.702Z,2.36
2023-01-30T12:39:49.877Z,2.54
2023-01-30T12:43:23.155Z,2.51
2023-01-30T12:46:45.489Z,3.39
2023-01-30T12:50:03.920Z,2.54
2023-01-30T12:53:32.892Z,2.54
2023-01-30T12:56:59.445Z,2.07
2023-01-30T13:00:27.905Z,2.53
2023-01-30T13:03:41.716Z,2.57
2023-01-30T13:06:59.401Z,2.03
2023-01-30T13:10:16.477Z,2.50
2023-01-30T13:13:31.359Z,2.53
2023-01-30T13:16:50.143Z,2.09
2023-01-30T13:20:05.369Z,2.68
2023-01-30T13:23:18.607Z,2.25
2023-01-30T13:26:31.456Z,2.84
2023-01-30T13:29:41.743Z,2.29
2023-01-30T13:32:51.026Z,2.03
2023-01-30T13:36:05.159Z,2.94
2023-01-30T13:42:34.386Z,2.14
2023-01-30T13:45:46.825Z,1.95
2023-01-30T13:49:07.838Z,2.93
2023-01-30T13:52:21.877Z,2.56
2023-01-30T13:55:34.039Z,2.11
2023-01-30T13:58:45.341Z,2.02
2023-01-30T14:02:22.081Z,2.77
2023-01-30T14:06:01.855Z,1.64
2023-01-30T14:09:22.350Z,1.30
2023-01-30T14:12:34.964Z,0.66
2023-01-30T14:15:43.849Z,0.64
2023-01-30T14:18:51.701Z,0.76
2023-01-30T14:21:59.865Z,0.48
2023-01-30T14:25:35.356Z,0.54
2023-01-30T14:28:48.387Z,0.51
2023-01-30T14:31:55.127Z,0.19
2023-01-30T14:35:23.714Z,0.23
2023-01-30T14:38:30.885Z,0.17
2023-01-30T14:41:37.600Z,-0.02
2023-01-30T14:44:58.083Z,0.11
2023-01-30T14:48:29.430Z,-0.21
2023-01-30T14:51:44.393Z,-0.36
2023-01-30T14:54:51.955Z,-0.17
2023-01-30T14:58:03.969Z,-0.43
2023-01-30T15:01:10.459Z,-0.30
2023-01-30T15:04:17.852Z,-0.12
2023-01-30T15:07:29.884Z,-0.45
2023-01-30T15:10:50.514Z,-0.19
2023-01-30T15:14:07.673Z,-0.39
2023-01-30T15:17:26.997Z,-0.42
2023-01-30T15:20:45.060Z,-0.47
2023-01-30T15:24:24.799Z,-0.37
2023-01-30T15:27:36.152Z,-0.38
2023-01-30T15:30:57.299Z,-0.50
2023-01-30T15:34:03.419Z,-0.55
2023-01-30T15:37:29.718Z,-0.48
2023-01-30T15:40:38.003Z,-0.36
2023-01-30T15:44:01.415Z,-0.32
2023-01-30T15:47:44.039Z,-0.45
2023-01-30T15:50:53.748Z,-0.45
2023-01-30T15:54:01.396Z,-0.54
2023-01-30T15:57:17.387Z,-0.70
2023-01-30T16:00:28.699Z,-0.53
2023-01-30T16:03:40.836Z,-0.67
2023-01-30T16:06:46.842Z,-0.59
2023-01-30T16:10:06.717Z,-0.75
2023-01-30T16:13:14.579Z,-0.59
2023-01-30T16:16:21.467Z,-0.61
2023-01-30T16:19:30.061Z,-0.79
2023-01-30T16:22:36.711Z,-0.81
2023-01-30T16:25:48.758Z,-0.93
2023-01-30T16:29:02.650Z,-0.84
2023-01-30T16:32:14.414Z,-0.99
2023-01-30T16:35:31.081Z,-0.83
2023-01-30T16:38:40.639Z,-0.87
2023-01-30T16:41:55.808Z,-0.87
2023-01-30T16:45:30.527Z,-0.64
2023-01-30T16:48:38.089Z,-0.55
2023-01-30T16:51:44.668Z,-0.97
2023-01-30T16:54:53.283Z,-0.96
2023-01-30T16:58:02.751Z,-0.71
2023-01-30T17:01:10.810Z,-0.59
2023-01-30T17:04:23.415Z,-0.63
2023-01-30T17:07:38.453Z,-0.52
2023-01-30T17:10:56.539Z,-0.48
2023-01-30T17:14:20.172Z,-0.51
2023-01-30T17:17:27.820Z,-0.82
2023-01-30T17:20:41.304Z,-0.71
2023-01-30T17:23:51.791Z,-0.48
2023-01-30T17:27:01.916Z,-0.60
2023-01-30T17:30:15.254Z,-0.62
2023-01-30T17:33:22.859Z,-0.70
2023-01-30T17:36:30.757Z,-0.98
2023-01-30T17:39:37.093Z,-1.10
2023-01-30T17:42:43.199Z,-1.09
2023-01-30T17:45:49.173Z,-0.94
2023-01-30T17:48:56.665Z,-1.34
2023-01-30T17:52:02.704Z,-1.11
2023-01-30T17:55:11.137Z,-1.13
2023-01-30T17:58:18.407Z,-0.96
2023-01-30T18:01:24.658Z,-1.06
2023-01-30T18:04:32.249Z,-1.01
2023-01-30T18:07:38.562Z,-0.98
2023-01-30T18:10:44.558Z,-1.01
2023-01-30T18:13:51.055Z,-1.00
2023-01-30T18:17:00.553Z,-0.95
2023-01-30T18:20:09.588Z,-1.37
2023-01-30T18:23:16.545Z,-1.38
2023-01-30T18:26:23.364Z,-1.05
2023-01-30T18:29:29.706Z,-1.53
2023-01-30T18:32:40.675Z,-1.52
2023-01-30T18:35:54.628Z,-1.23
2023-01-30T18:39:00.876Z,-1.35
2023-01-30T18:42:08.272Z,-1.05
2023-01-30T18:45:14.253Z,-1.12
2023-01-30T18:48:20.235Z,-1.25
2023-01-30T18:51:29.692Z,-1.55
2023-01-30T18:54:37.586Z,-1.37
2023-01-30T18:57:43.831Z,-1.13
2023-01-30T19:00:49.903Z,-1.18
2023-01-30T19:03:56.907Z,-1.25
2023-01-30T19:07:04.404Z,-1.25
2023-01-30T19:10:12.180Z,-1.25
2023-01-30T19:13:36.853Z,-1.53
2023-01-30T19:16:43.010Z,-1.55
2023-01-30T19:19:49.248Z,-1.44
2023-01-30T19:22:56.665Z,-1.45
2023-01-30T19:26:02.779Z,-1.29
2023-01-30T19:29:08.928Z,-1.28
2023-01-30T19:32:15.038Z,-1.35
2023-01-30T19:35:21.957Z,-1.44
2023-01-30T19:38:29.906Z,-1.68
2023-01-30T19:41:37.911Z,-1.40
2023-01-30T19:44:43.997Z,-1.60
2023-01-30T19:47:50.040Z,-1.42
2023-01-30T19:50:56.123Z,-1.27
2023-01-30T19:54:06.423Z,-1.26
2023-01-30T19:57:12.511Z,-1.30
2023-01-30T20:00:19.740Z,-1.65
2023-01-30T20:03:26.200Z,-1.81
2023-01-30T20:06:34.917Z,-1.62
2023-01-30T20:09:42.539Z,-1.39
2023-01-30T20:12:48.991Z,-1.44
2023-01-30T20:15:56.732Z,-1.56
2023-01-30T20:19:05.676Z,-1.56
2023-01-30T20:22:11.991Z,-1.30
2023-01-30T20:25:19.632Z,-1.21
2023-01-30T20:28:26.137Z,-1.18
2023-01-30T20:31:34.777Z,-1.45
2023-01-30T20:34:41.086Z,-1.40
2023-01-30T20:37:47.087Z,-0.98
2023-01-30T20:41:02.341Z,-1.56
2023-01-30T20:44:10.073Z,-1.38
2023-01-30T20:47:16.769Z,-1.34
2023-01-30T20:50:23.055Z,-1.37
2023-01-30T20:53:29.265Z,-1.25
2023-01-30T20:56:39.865Z,-1.33
2023-01-30T20:59:46.861Z,-1.15
2023-01-30T21:02:53.501Z,-1.33
2023-01-30T21:06:00.267Z,-1.65
2023-01-30T21:09:08.331Z,-1.51
2023-01-30T21:12:16.252Z,-1.30
2023-01-30T21:15:22.743Z,-1.26
2023-01-30T21:18:31.569Z,-1.10
2023-01-30T21:21:40.273Z,-1.24
2023-01-30T21:24:46.714Z,-1.33
2023-01-30T21:27:54.626Z,-1.02
2023-01-30T21:31:06.092Z,-1.07
2023-01-30T21:34:13.307Z,-1.43
2023-01-30T21:37:37.096Z,-1.25
2023-01-30T21:41:08.032Z,-1.15
2023-01-30T21:44:16.301Z,-1.31
2023-01-30T21:47:22.826Z,-1.11
2023-01-30T21:50:28.929Z,-1.09
2023-01-30T21:53:35.061Z,-1.03
2023-01-30T21:56:41.459Z,-1.21
2023-01-30T21:59:49.191Z,-1.23
2023-01-30T22:02:55.180Z,-1.28
2023-01-30T22:06:01.195Z,-1.06
2023-01-30T22:09:08.052Z,-0.93
2023-01-30T22:12:14.281Z,-1.51
2023-01-30T22:15:22.762Z,-1.22
2023-01-30T22:18:28.995Z,-1.27
2023-01-30T22:21:36.718Z,-1.33
2023-01-30T22:24:42.737Z,-1.40
2023-01-30T22:27:48.847Z,-1.07
2023-01-30T22:31:01.815Z,-1.36
2023-01-30T22:34:08.969Z,-0.89
2023-01-30T22:37:16.451Z,-1.08
2023-01-30T22:40:22.266Z,-1.05
2023-01-30T22:43:28.615Z,-1.10
2023-01-30T22:46:38.628Z,-1.33
2023-01-30T22:49:44.966Z,-1.54
2023-01-30T22:52:50.960Z,-1.23
2023-01-30T22:55:57.264Z,-1.00
2023-01-30T22:59:04.617Z,-1.07
2023-01-30T23:02:12.384Z,-1.02
2023-01-30T23:05:18.905Z,-0.94
2023-01-30T23:08:25.783Z,-1.13
2023-01-30T23:11:35.812Z,-0.96
2023-01-30T23:14:43.093Z,-1.05
2023-01-30T23:18:07.935Z,-1.47
2023-01-30T23:21:16.166Z,-1.23
2023-01-30T23:24:22.789Z,-1.15
2023-01-30T23:27:32.125Z,-0.92
2023-01-30T23:30:40.230Z,-0.78
2023-01-30T23:33:47.849Z,-0.90
2023-01-30T23:36:55.063Z,-1.02
2023-01-30T23:40:03.332Z,-0.93
2023-01-30T23:43:09.564Z,-0.80
2023-01-30T23:46:19.754Z,-0.76
2023-01-30T23:49:27.563Z,-1.09
2023-01-30T23:52:33.815Z,-1.19
2023-01-30T23:55:39.931Z,-0.81
2023-01-30T23:58:47.115Z,-0.89
